sensor_id;sensor_type;location;lat;lon;timestamp;pressure;altitude;pressure_sealevel;temperature;humidity
65175;BME280;51761;42.126;24.752;2022-10-24T00:00:19;100300.56;;;14.27;64.43
65175;BME280;51761;42.126;24.752;2022-10-24T00:02:45;100289.41;;;14.24;64.88
65175;BME280;51761;42.126;24.752;2022-10-24T00:05:12;100255.06;;;14.13;64.22
65175;BME280;51761;42.126;24.752;2022-10-24T00:07:38;100280.63;;;14.22;64.30
65175;BME280;51761;42.126;24.752;2022-10-24T00:10:04;100283.91;;;14.17;64.38
65175;BME280;51761;42.126;24.752;2022-10-24T00:12:29;100281.66;;;14.08;64.48
65175;BME280;51761;42.126;24.752;2022-10-24T00:14:55;100294.53;;;14.06;64.51
65175;BME280;51761;42.126;24.752;2022-10-24T00:17:20;100255.19;;;13.67;64.48
65175;BME280;51761;42.126;24.752;2022-10-24T00:19:46;100268.03;;;13.87;65.32
65175;BME280;51761;42.126;24.752;2022-10-24T00:22:11;100270.19;;;13.99;64.75
65175;BME280;51761;42.126;24.752;2022-10-24T00:24:37;100281.22;;;14.10;63.60
65175;BME280;51761;42.126;24.752;2022-10-24T00:27:03;100270.00;;;14.10;62.04
65175;BME280;51761;42.126;24.752;2022-10-24T00:29:28;100231.59;;;13.84;63.00
65175;BME280;51761;42.126;24.752;2022-10-24T00:31:54;100269.28;;;14.06;62.85
65175;BME280;51761;42.126;24.752;2022-10-24T00:34:19;100243.06;;;13.93;62.85
65175;BME280;51761;42.126;24.752;2022-10-24T00:36:45;100266.91;;;14.04;62.52
65175;BME280;51761;42.126;24.752;2022-10-24T00:39:11;100264.94;;;14.01;62.37
65175;BME280;51761;42.126;24.752;2022-10-24T00:41:40;100271.63;;;13.88;62.69
65175;BME280;51761;42.126;24.752;2022-10-24T00:44:18;100286.28;;;13.76;62.91
65175;BME280;51761;42.126;24.752;2022-10-24T00:47:20;100235.28;;;13.58;62.27
65175;BME280;51761;42.126;24.752;2022-10-24T00:50:12;100263.16;;;13.68;61.73
65175;BME280;51761;42.126;24.752;2022-10-24T00:52:44;100287.09;;;13.76;62.22
65175;BME280;51761;42.126;24.752;2022-10-24T00:55:11;100274.06;;;13.86;62.25
65175;BME280;51761;42.126;24.752;2022-10-24T00:57:53;100278.41;;;13.90;62.07
65175;BME280;51761;42.126;24.752;2022-10-24T01:00:28;100275.66;;;13.87;62.26
65175;BME280;51761;42.126;24.752;2022-10-24T01:02:55;100243.06;;;13.50;62.72
65175;BME280;51761;42.126;24.752;2022-10-24T01:05:22;100245.09;;;13.46;63.26
65175;BME280;51761;42.126;24.752;2022-10-24T01:22:18;100254.88;;;13.38;62.38
65175;BME280;51761;42.126;24.752;2022-10-24T01:30:28;100266.41;;;13.44;63.71
65175;BME280;51761;42.126;24.752;2022-10-24T01:33:07;100244.94;;;13.34;63.14
65175;BME280;51761;42.126;24.752;2022-10-24T01:38:31;100263.59;;;13.44;63.63
65175;BME280;51761;42.126;24.752;2022-10-24T01:41:14;100233.56;;;13.18;63.37
65175;BME280;51761;42.126;24.752;2022-10-24T01:44:04;100270.13;;;13.37;64.20
65175;BME280;51761;42.126;24.752;2022-10-24T01:46:37;100273.13;;;13.50;63.94
65175;BME280;51761;42.126;24.752;2022-10-24T01:49:11;100271.78;;;13.35;62.95
65175;BME280;51761;42.126;24.752;2022-10-24T01:51:38;100233.06;;;13.00;63.94
65175;BME280;51761;42.126;24.752;2022-10-24T01:54:06;100258.09;;;13.14;64.09
65175;BME280;51761;42.126;24.752;2022-10-24T01:56:33;100271.66;;;13.15;64.99
65175;BME280;51761;42.126;24.752;2022-10-24T02:04:52;100281.78;;;13.09;64.13
65175;BME280;51761;42.126;24.752;2022-10-24T02:07:20;100275.06;;;13.03;64.38
65175;BME280;51761;42.126;24.752;2022-10-24T02:09:52;100279.50;;;13.01;64.81
65175;BME280;51761;42.126;24.752;2022-10-24T02:12:20;100256.53;;;12.83;64.89
65175;BME280;51761;42.126;24.752;2022-10-24T02:14:50;100246.94;;;12.80;64.30
65175;BME280;51761;42.126;24.752;2022-10-24T02:17:19;100244.66;;;12.72;64.69
65175;BME280;51761;42.126;24.752;2022-10-24T02:19:45;100264.44;;;12.91;64.55
65175;BME280;51761;42.126;24.752;2022-10-24T02:22:23;100274.75;;;12.98;64.48
65175;BME280;51761;42.126;24.752;2022-10-24T02:25:10;100282.22;;;13.08;64.44
65175;BME280;51761;42.126;24.752;2022-10-24T02:27:46;100278.66;;;13.04;64.22
65175;BME280;51761;42.126;24.752;2022-10-24T02:30:17;100268.78;;;12.96;63.85
65175;BME280;51761;42.126;24.752;2022-10-24T02:32:50;100283.81;;;13.09;64.09
65175;BME280;51761;42.126;24.752;2022-10-24T02:35:19;100262.03;;;12.90;64.28
65175;BME280;51761;42.126;24.752;2022-10-24T02:37:50;100289.72;;;13.14;64.25
65175;BME280;51761;42.126;24.752;2022-10-24T02:40:18;100286.88;;;13.18;63.81
65175;BME280;51761;42.126;24.752;2022-10-24T02:42:46;100269.66;;;13.16;63.75
65175;BME280;51761;42.126;24.752;2022-10-24T02:45:14;100284.38;;;13.23;64.15
65175;BME280;51761;42.126;24.752;2022-10-24T02:47:41;100280.03;;;13.19;64.16
65175;BME280;51761;42.126;24.752;2022-10-24T02:50:07;100241.38;;;13.07;64.14
65175;BME280;51761;42.126;24.752;2022-10-24T02:52:33;100283.81;;;13.32;63.94
65175;BME280;51761;42.126;24.752;2022-10-24T02:55:00;100272.19;;;13.33;63.80
65175;BME280;51761;42.126;24.752;2022-10-24T02:57:25;100283.66;;;13.42;63.58
65175;BME280;51761;42.126;24.752;2022-10-24T02:59:52;100269.34;;;13.37;63.62
65175;BME280;51761;42.126;24.752;2022-10-24T03:02:18;100278.13;;;13.39;63.85
65175;BME280;51761;42.126;24.752;2022-10-24T03:04:44;100248.69;;;13.24;63.48
65175;BME280;51761;42.126;24.752;2022-10-24T03:07:10;100277.25;;;13.42;63.48
65175;BME280;51761;42.126;24.752;2022-10-24T03:09:35;100266.72;;;13.49;63.59
65175;BME280;51761;42.126;24.752;2022-10-24T03:12:02;100257.31;;;13.36;63.27
65175;BME280;51761;42.126;24.752;2022-10-24T03:14:27;100238.34;;;13.21;63.58
65175;BME280;51761;42.126;24.752;2022-10-24T03:16:53;100252.56;;;13.33;63.66
65175;BME280;51761;42.126;24.752;2022-10-24T03:19:19;100272.75;;;13.48;64.06
65175;BME280;51761;42.126;24.752;2022-10-24T03:21:44;100250.25;;;13.28;64.18
65175;BME280;51761;42.126;24.752;2022-10-24T03:24:10;100251.47;;;13.27;64.24
65175;BME280;51761;42.126;24.752;2022-10-24T03:26:35;100275.03;;;13.30;64.93
65175;BME280;51761;42.126;24.752;2022-10-24T03:29:01;100237.03;;;13.02;65.28
65175;BME280;51761;42.126;24.752;2022-10-24T03:31:27;100269.31;;;13.14;65.50
65175;BME280;51761;42.126;24.752;2022-10-24T03:33:54;100237.19;;;12.92;65.92
65175;BME280;51761;42.126;24.752;2022-10-24T03:36:20;100266.63;;;13.07;65.79
65175;BME280;51761;42.126;24.752;2022-10-24T03:38:46;100252.03;;;12.92;65.73
65175;BME280;51761;42.126;24.752;2022-10-24T03:41:11;100271.38;;;13.10;65.76
65175;BME280;51761;42.126;24.752;2022-10-24T03:43:36;100281.66;;;13.16;65.99
65175;BME280;51761;42.126;24.752;2022-10-24T03:46:02;100235.00;;;12.76;66.13
65175;BME280;51761;42.126;24.752;2022-10-24T03:48:28;100254.59;;;12.80;66.56
65175;BME280;51761;42.126;24.752;2022-10-24T03:50:53;100249.34;;;12.82;67.14
65175;BME280;51761;42.126;24.752;2022-10-24T03:53:19;100281.47;;;12.74;67.30
65175;BME280;51761;42.126;24.752;2022-10-24T03:55:46;100246.50;;;12.56;67.97
65175;BME280;51761;42.126;24.752;2022-10-24T03:58:12;100270.34;;;12.70;67.99
65175;BME280;51761;42.126;24.752;2022-10-24T04:00:37;100278.31;;;12.72;68.42
65175;BME280;51761;42.126;24.752;2022-10-24T04:03:05;100247.81;;;12.48;67.74
65175;BME280;51761;42.126;24.752;2022-10-24T04:05:31;100273.16;;;12.67;68.40
65175;BME280;51761;42.126;24.752;2022-10-24T04:07:57;100274.88;;;12.61;68.30
65175;BME280;51761;42.126;24.752;2022-10-24T04:10:23;100268.44;;;12.60;68.29
65175;BME280;51761;42.126;24.752;2022-10-24T04:12:48;100267.22;;;12.61;68.48
65175;BME280;51761;42.126;24.752;2022-10-24T04:15:14;100266.31;;;12.71;68.41
65175;BME280;51761;42.126;24.752;2022-10-24T04:17:39;100268.84;;;12.63;68.50
65175;BME280;51761;42.126;24.752;2022-10-24T04:20:05;100248.91;;;12.57;68.36
65175;BME280;51761;42.126;24.752;2022-10-24T04:22:31;100275.56;;;12.68;68.25
65175;BME280;51761;42.126;24.752;2022-10-24T04:24:56;100275.22;;;12.63;68.34
65175;BME280;51761;42.126;24.752;2022-10-24T04:27:21;100267.94;;;12.69;68.33
65175;BME280;51761;42.126;24.752;2022-10-24T04:29:47;100273.50;;;12.72;68.10
65175;BME280;51761;42.126;24.752;2022-10-24T04:32:12;100244.91;;;12.55;68.60
65175;BME280;51761;42.126;24.752;2022-10-24T04:34:38;100173.47;;;12.13;68.26
65175;BME280;51761;42.126;24.752;2022-10-24T04:37:04;100266.69;;;12.73;68.42
65175;BME280;51761;42.126;24.752;2022-10-24T04:39:29;100235.41;;;12.49;68.72
65175;BME280;51761;42.126;24.752;2022-10-24T04:41:55;100256.78;;;12.65;68.75
65175;BME280;51761;42.126;24.752;2022-10-24T04:44:20;100244.19;;;12.51;68.84
65175;BME280;51761;42.126;24.752;2022-10-24T04:46:46;100243.78;;;12.52;68.88
65175;BME280;51761;42.126;24.752;2022-10-24T04:49:11;100265.97;;;12.66;68.82
65175;BME280;51761;42.126;24.752;2022-10-24T04:51:37;100268.75;;;12.69;68.89
65175;BME280;51761;42.126;24.752;2022-10-24T04:54:02;100257.47;;;12.73;68.76
65175;BME280;51761;42.126;24.752;2022-10-24T04:56:28;100244.44;;;12.59;68.78
65175;BME280;51761;42.126;24.752;2022-10-24T04:58:53;100243.44;;;12.73;68.63
65175;BME280;51761;42.126;24.752;2022-10-24T05:01:19;100267.28;;;12.88;68.23
65175;BME280;51761;42.126;24.752;2022-10-24T05:03:45;100272.38;;;12.96;67.92
65175;BME280;51761;42.126;24.752;2022-10-24T05:06:10;100269.94;;;12.98;67.76
65175;BME280;51761;42.126;24.752;2022-10-24T05:08:36;100277.88;;;13.03;67.42
65175;BME280;51761;42.126;24.752;2022-10-24T05:11:02;100275.41;;;13.09;66.65
65175;BME280;51761;42.126;24.752;2022-10-24T05:13:27;100274.25;;;13.29;65.85
65175;BME280;51761;42.126;24.752;2022-10-24T05:15:53;100264.28;;;13.51;64.52
65175;BME280;51761;42.126;24.752;2022-10-24T05:18:18;100286.31;;;14.18;62.76
65175;BME280;51761;42.126;24.752;2022-10-24T05:20:44;100271.75;;;14.62;60.53
65175;BME280;51761;42.126;24.752;2022-10-24T05:23:09;100296.63;;;15.34;58.72
65175;BME280;51761;42.126;24.752;2022-10-24T05:25:35;100292.75;;;15.60;57.52
65175;BME280;51761;42.126;24.752;2022-10-24T05:28:00;100258.16;;;15.76;56.28
65175;BME280;51761;42.126;24.752;2022-10-24T05:30:26;100288.78;;;16.75;54.23
65175;BME280;51761;42.126;24.752;2022-10-24T05:32:51;100306.22;;;17.48;52.02
65175;BME280;51761;42.126;24.752;2022-10-24T05:35:17;100304.84;;;17.99;50.65
65175;BME280;51761;42.126;24.752;2022-10-24T05:37:42;100281.50;;;18.20;49.56
65175;BME280;51761;42.126;24.752;2022-10-24T05:40:10;100300.56;;;18.62;48.95
65175;BME280;51761;42.126;24.752;2022-10-24T05:42:36;100272.47;;;18.68;48.27
65175;BME280;51761;42.126;24.752;2022-10-24T05:45:06;100307.91;;;19.33;46.54
65175;BME280;51761;42.126;24.752;2022-10-24T05:47:32;100311.00;;;19.65;45.70
65175;BME280;51761;42.126;24.752;2022-10-24T05:49:58;100286.81;;;19.91;44.42
65175;BME280;51761;42.126;24.752;2022-10-24T05:52:23;100273.97;;;20.08;44.20
65175;BME280;51761;42.126;24.752;2022-10-24T05:54:49;100306.28;;;20.47;43.47
65175;BME280;51761;42.126;24.752;2022-10-24T05:57:14;100297.22;;;21.02;42.45
65175;BME280;51761;42.126;24.752;2022-10-24T05:59:40;100304.00;;;20.95;43.29
65175;BME280;51761;42.126;24.752;2022-10-24T06:02:06;100307.34;;;20.67;44.32
65175;BME280;51761;42.126;24.752;2022-10-24T06:04:31;100281.00;;;20.67;42.94
65175;BME280;51761;42.126;24.752;2022-10-24T06:06:57;100302.34;;;21.21;42.46
65175;BME280;51761;42.126;24.752;2022-10-24T06:09:22;100305.38;;;21.50;41.72
65175;BME280;51761;42.126;24.752;2022-10-24T06:11:48;100312.00;;;21.56;41.31
65175;BME280;51761;42.126;24.752;2022-10-24T06:14:13;100319.03;;;21.79;41.66
65175;BME280;51761;42.126;24.752;2022-10-24T06:16:41;100321.03;;;21.87;41.86
65175;BME280;51761;42.126;24.752;2022-10-24T06:19:06;100319.09;;;22.40;40.43
65175;BME280;51761;42.126;24.752;2022-10-24T06:21:32;100294.28;;;22.55;39.17
65175;BME280;51761;42.126;24.752;2022-10-24T06:23:57;100315.72;;;22.04;40.66
65175;BME280;51761;42.126;24.752;2022-10-24T06:26:26;100324.78;;;21.93;40.79
65175;BME280;51761;42.126;24.752;2022-10-24T06:28:51;100302.38;;;22.10;39.92
65175;BME280;51761;42.126;24.752;2022-10-24T06:31:18;100305.50;;;22.35;39.30
65175;BME280;51761;42.126;24.752;2022-10-24T06:33:44;100256.06;;;22.33;39.44
65175;BME280;51761;42.126;24.752;2022-10-24T06:36:10;100331.56;;;23.09;38.50
65175;BME280;51761;42.126;24.752;2022-10-24T06:38:36;100315.66;;;22.88;38.59
65175;BME280;51761;42.126;24.752;2022-10-24T06:41:10;100317.63;;;22.45;39.18
65175;BME280;51761;42.126;24.752;2022-10-24T06:43:36;100338.75;;;22.29;39.86
65175;BME280;51761;42.126;24.752;2022-10-24T06:46:07;100302.03;;;21.61;41.08
65175;BME280;51761;42.126;24.752;2022-10-24T06:48:34;100332.81;;;21.71;41.51
65175;BME280;51761;42.126;24.752;2022-10-24T06:51:00;100329.81;;;21.66;41.90
65175;BME280;51761;42.126;24.752;2022-10-24T06:53:25;100336.75;;;22.21;40.67
65175;BME280;51761;42.126;24.752;2022-10-24T06:55:52;100308.25;;;22.06;40.86
65175;BME280;51761;42.126;24.752;2022-10-24T06:58:17;100330.97;;;22.39;53.96
65175;BME280;51761;42.126;24.752;2022-10-24T07:00:43;100309.66;;;22.72;49.02
65175;BME280;51761;42.126;24.752;2022-10-24T07:03:13;100307.50;;;23.25;40.19
65175;BME280;51761;42.126;24.752;2022-10-24T07:05:38;100326.59;;;23.82;40.53
65175;BME280;51761;42.126;24.752;2022-10-24T07:08:04;100333.50;;;24.30;43.42
65175;BME280;51761;42.126;24.752;2022-10-24T07:10:30;100332.28;;;24.76;40.14
65175;BME280;51761;42.126;24.752;2022-10-24T07:12:55;100304.94;;;24.95;38.31
65175;BME280;51761;42.126;24.752;2022-10-24T07:15:21;100325.09;;;25.37;37.22
65175;BME280;51761;42.126;24.752;2022-10-24T07:17:46;100322.25;;;25.12;37.37
65175;BME280;51761;42.126;24.752;2022-10-24T07:20:12;100318.31;;;25.09;37.40
65175;BME280;51761;42.126;24.752;2022-10-24T07:22:39;100239.69;;;24.63;38.14
65175;BME280;51761;42.126;24.752;2022-10-24T07:25:06;100324.91;;;25.46;37.97
65175;BME280;51761;42.126;24.752;2022-10-24T07:27:32;100309.31;;;25.47;36.86
65175;BME280;51761;42.126;24.752;2022-10-24T07:29:58;100292.94;;;25.48;35.95
65175;BME280;51761;42.126;24.752;2022-10-24T07:32:23;100318.13;;;25.75;36.73
65175;BME280;51761;42.126;24.752;2022-10-24T07:34:49;100316.72;;;25.96;34.04
65175;BME280;51761;42.126;24.752;2022-10-24T07:37:15;100310.63;;;26.24;34.13
65175;BME280;51761;42.126;24.752;2022-10-24T07:39:41;100287.84;;;25.99;33.15
65175;BME280;51761;42.126;24.752;2022-10-24T07:42:07;100313.50;;;26.24;33.57
65175;BME280;51761;42.126;24.752;2022-10-24T07:44:33;100316.13;;;26.33;34.03
65175;BME280;51761;42.126;24.752;2022-10-24T07:46:58;100319.13;;;26.55;33.34
65175;BME280;51761;42.126;24.752;2022-10-24T07:49:23;100295.34;;;26.44;33.05
65175;BME280;51761;42.126;24.752;2022-10-24T07:51:49;100304.69;;;26.33;33.20
65175;BME280;51761;42.126;24.752;2022-10-24T07:54:14;100324.84;;;26.55;32.85
65175;BME280;51761;42.126;24.752;2022-10-24T07:56:40;100304.88;;;26.19;33.41
65175;BME280;51761;42.126;24.752;2022-10-24T07:59:06;100286.91;;;26.18;33.08
65175;BME280;51761;42.126;24.752;2022-10-24T08:01:31;100316.25;;;26.61;32.51
65175;BME280;51761;42.126;24.752;2022-10-24T08:03:57;100313.19;;;26.81;32.24
65175;BME280;51761;42.126;24.752;2022-10-24T08:06:27;100288.69;;;26.74;32.08
65175;BME280;51761;42.126;24.752;2022-10-24T08:08:54;100308.50;;;26.78;33.11
65175;BME280;51761;42.126;24.752;2022-10-24T08:11:22;100313.53;;;27.32;32.12
65175;BME280;51761;42.126;24.752;2022-10-24T08:13:49;100301.13;;;26.55;32.76
65175;BME280;51761;42.126;24.752;2022-10-24T08:16:16;100286.63;;;26.16;33.00
65175;BME280;51761;42.126;24.752;2022-10-24T08:18:43;100301.22;;;26.82;32.74
65175;BME280;51761;42.126;24.752;2022-10-24T08:21:11;100307.69;;;26.77;32.03
65175;BME280;51761;42.126;24.752;2022-10-24T08:23:41;100303.72;;;26.53;32.71
65175;BME280;51761;42.126;24.752;2022-10-24T08:26:08;100311.63;;;26.69;32.23
65175;BME280;51761;42.126;24.752;2022-10-24T08:28:34;100310.56;;;26.66;32.07
65175;BME280;51761;42.126;24.752;2022-10-24T08:31:03;100228.94;;;26.45;32.90
65175;BME280;51761;42.126;24.752;2022-10-24T08:33:29;100301.56;;;27.23;31.77
65175;BME280;51761;42.126;24.752;2022-10-24T08:35:58;100277.03;;;27.27;31.60
65175;BME280;51761;42.126;24.752;2022-10-24T08:38:24;100304.16;;;27.54;31.43
65175;BME280;51761;42.126;24.752;2022-10-24T08:40:49;100304.16;;;27.10;32.04
65175;BME280;51761;42.126;24.752;2022-10-24T08:43:17;100260.03;;;26.91;32.63
65175;BME280;51761;42.126;24.752;2022-10-24T08:48:26;100259.53;;;26.92;30.96
65175;BME280;51761;42.126;24.752;2022-10-24T08:50:58;100255.91;;;27.08;31.71
65175;BME280;51761;42.126;24.752;2022-10-24T08:53:27;100254.84;;;26.95;31.65
65175;BME280;51761;42.126;24.752;2022-10-24T08:55:56;100275.22;;;27.52;31.16
65175;BME280;51761;42.126;24.752;2022-10-24T09:00:55;100277.81;;;27.71;30.74
65175;BME280;51761;42.126;24.752;2022-10-24T09:03:42;100255.63;;;27.45;30.99
65175;BME280;51761;42.126;24.752;2022-10-24T09:06:16;100277.25;;;27.67;30.46
65175;BME280;51761;42.126;24.752;2022-10-24T09:08:49;100275.19;;;27.68;30.33
65175;BME280;51761;42.126;24.752;2022-10-24T09:14:32;100264.66;;;28.03;31.03
65175;BME280;51761;42.126;24.752;2022-10-24T09:20:20;100259.44;;;28.07;30.40
65175;BME280;51761;42.126;24.752;2022-10-24T09:22:46;100224.50;;;27.92;30.45
65175;BME280;51761;42.126;24.752;2022-10-24T09:25:22;100255.31;;;28.54;30.20
65175;BME280;51761;42.126;24.752;2022-10-24T09:27:48;100243.84;;;28.49;30.08
65175;BME280;51761;42.126;24.752;2022-10-24T09:30:21;100251.94;;;28.56;30.00
65175;BME280;51761;42.126;24.752;2022-10-24T09:32:49;100245.50;;;28.79;29.65
65175;BME280;51761;42.126;24.752;2022-10-24T09:35:21;100237.09;;;28.87;29.62
65175;BME280;51761;42.126;24.752;2022-10-24T09:37:51;100220.31;;;28.56;29.26
65175;BME280;51761;42.126;24.752;2022-10-24T09:40:28;100212.94;;;28.09;29.82
65175;BME280;51761;42.126;24.752;2022-10-24T09:43:01;100210.97;;;28.44;29.88
65175;BME280;51761;42.126;24.752;2022-10-24T09:45:38;100228.59;;;29.05;29.51
65175;BME280;51761;42.126;24.752;2022-10-24T09:48:14;100181.94;;;28.48;29.65
65175;BME280;51761;42.126;24.752;2022-10-24T09:50:41;100192.13;;;28.89;29.33
65175;BME280;51761;42.126;24.752;2022-10-24T09:53:22;100207.69;;;29.34;29.38
65175;BME280;51761;42.126;24.752;2022-10-24T09:55:54;100184.53;;;29.21;29.55
65175;BME280;51761;42.126;24.752;2022-10-24T09:58:26;100180.88;;;29.50;28.72
65175;BME280;51761;42.126;24.752;2022-10-24T10:01:18;100204.25;;;29.65;28.67
65175;BME280;51761;42.126;24.752;2022-10-24T10:04:00;100196.50;;;29.54;28.89
65175;BME280;51761;42.126;24.752;2022-10-24T10:06:26;100172.53;;;29.46;27.71
65175;BME280;51761;42.126;24.752;2022-10-24T10:08:55;100166.81;;;29.65;29.07
65175;BME280;51761;42.126;24.752;2022-10-24T10:11:32;100190.75;;;29.54;28.79
65175;BME280;51761;42.126;24.752;2022-10-24T10:14:00;100164.88;;;29.49;28.31
65175;BME280;51761;42.126;24.752;2022-10-24T10:16:32;100146.63;;;29.46;28.24
65175;BME280;51761;42.126;24.752;2022-10-24T10:19:18;100165.16;;;29.51;28.33
65175;BME280;51761;42.126;24.752;2022-10-24T10:22:00;100165.16;;;29.22;28.65
65175;BME280;51761;42.126;24.752;2022-10-24T10:24:41;100160.41;;;29.53;29.01
65175;BME280;51761;42.126;24.752;2022-10-24T10:30:08;100132.84;;;29.34;28.41
65175;BME280;51761;42.126;24.752;2022-10-24T10:32:37;100157.56;;;29.48;28.39
65175;BME280;51761;42.126;24.752;2022-10-24T10:35:30;100149.44;;;29.52;27.86
65175;BME280;51761;42.126;24.752;2022-10-24T10:40:54;100136.47;;;29.64;28.09
65175;BME280;51761;42.126;24.752;2022-10-24T10:46:31;100130.75;;;30.01;27.57
65175;BME280;51761;42.126;24.752;2022-10-24T10:51:43;100105.28;;;29.86;28.33
65175;BME280;51761;42.126;24.752;2022-10-24T10:57:15;100038.75;;;29.53;28.62
65175;BME280;51761;42.126;24.752;2022-10-24T11:02:38;100116.28;;;30.06;27.84
65175;BME280;51761;42.126;24.752;2022-10-24T11:10:52;100107.44;;;29.62;28.61
65175;BME280;51761;42.126;24.752;2022-10-24T11:13:30;100097.88;;;29.72;29.69
65175;BME280;51761;42.126;24.752;2022-10-24T11:16:02;100069.53;;;29.58;29.09
65175;BME280;51761;42.126;24.752;2022-10-24T11:18:32;100094.38;;;29.98;28.48
65175;BME280;51761;42.126;24.752;2022-10-24T11:21:10;100063.19;;;30.20;28.18
65175;BME280;51761;42.126;24.752;2022-10-24T11:23:54;100093.97;;;30.62;28.65
65175;BME280;51761;42.126;24.752;2022-10-24T11:26:52;100095.75;;;30.65;28.14
65175;BME280;51761;42.126;24.752;2022-10-24T11:29:33;100061.94;;;30.66;28.05
65175;BME280;51761;42.126;24.752;2022-10-24T11:32:13;100070.59;;;30.79;28.48
65175;BME280;51761;42.126;24.752;2022-10-24T11:34:54;100079.09;;;31.03;27.99
65175;BME280;51761;42.126;24.752;2022-10-24T11:37:31;100039.28;;;31.14;26.79
65175;BME280;51761;42.126;24.752;2022-10-24T11:40:01;100040.16;;;31.09;27.64
65175;BME280;51761;42.126;24.752;2022-10-24T11:45:20;100041.13;;;30.99;27.24
65175;BME280;51761;42.126;24.752;2022-10-24T11:50:32;100032.97;;;30.58;28.20
65175;BME280;51761;42.126;24.752;2022-10-24T11:55:42;100005.53;;;30.52;28.12
65175;BME280;51761;42.126;24.752;2022-10-24T11:58:14;100022.25;;;30.85;28.11
65175;BME280;51761;42.126;24.752;2022-10-24T12:20:11;99985.06;;;30.68;28.21
65175;BME280;51761;42.126;24.752;2022-10-24T12:22:41;100009.19;;;30.97;27.50
65175;BME280;51761;42.126;24.752;2022-10-24T12:25:21;100004.31;;;31.17;27.90
65175;BME280;51761;42.126;24.752;2022-10-24T12:27:57;99980.31;;;30.71;28.21
65175;BME280;51761;42.126;24.752;2022-10-24T12:30:25;99989.00;;;30.97;28.20
65175;BME280;51761;42.126;24.752;2022-10-24T12:33:24;99985.44;;;31.04;28.44
65175;BME280;51761;42.126;24.752;2022-10-24T12:35:53;99984.75;;;30.85;27.88
65175;BME280;51761;42.126;24.752;2022-10-24T12:43:37;99976.09;;;30.85;29.10
65175;BME280;51761;42.126;24.752;2022-10-24T12:48:44;99970.78;;;30.63;28.83
65175;BME280;51761;42.126;24.752;2022-10-24T12:59:23;99956.34;;;30.63;28.56
65175;BME280;51761;42.126;24.752;2022-10-24T13:08:22;99921.22;;;30.20;29.06
65175;BME280;51761;42.126;24.752;2022-10-24T13:24:31;99940.78;;;30.53;29.14
65175;BME280;51761;42.126;24.752;2022-10-24T13:37:22;99934.00;;;30.37;29.22
65175;BME280;51761;42.126;24.752;2022-10-24T13:42:35;99938.13;;;30.10;29.68
65175;BME280;51761;42.126;24.752;2022-10-24T13:45:26;99928.34;;;30.00;29.15
65175;BME280;51761;42.126;24.752;2022-10-24T13:47:59;99934.28;;;30.21;29.89
65175;BME280;51761;42.126;24.752;2022-10-24T13:50:30;99927.47;;;30.37;28.97
65175;BME280;51761;42.126;24.752;2022-10-24T13:53:04;99931.00;;;30.43;29.26
65175;BME280;51761;42.126;24.752;2022-10-24T13:55:45;99913.16;;;30.31;29.52
65175;BME280;51761;42.126;24.752;2022-10-24T13:58:18;99913.34;;;30.20;29.25
65175;BME280;51761;42.126;24.752;2022-10-24T14:00:48;99925.88;;;30.23;29.32
65175;BME280;51761;42.126;24.752;2022-10-24T14:03:19;99845.63;;;29.69;30.26
65175;BME280;51761;42.126;24.752;2022-10-24T14:05:53;99930.44;;;30.00;29.63
65175;BME280;51761;42.126;24.752;2022-10-24T14:08:27;99926.00;;;29.99;29.62
65175;BME280;51761;42.126;24.752;2022-10-24T14:10:54;99929.94;;;29.83;29.74
65175;BME280;51761;42.126;24.752;2022-10-24T14:13:22;99929.72;;;29.81;30.39
65175;BME280;51761;42.126;24.752;2022-10-24T14:15:51;99909.91;;;29.59;30.25
65175;BME280;51761;42.126;24.752;2022-10-24T14:18:18;99895.97;;;29.44;30.38
65175;BME280;51761;42.126;24.752;2022-10-24T14:20:51;99926.16;;;29.56;30.56
65175;BME280;51761;42.126;24.752;2022-10-24T14:26:11;99925.66;;;29.34;31.40
65175;BME280;51761;42.126;24.752;2022-10-24T14:28:43;99931.19;;;29.14;31.99
65175;BME280;51761;42.126;24.752;2022-10-24T14:31:31;99921.81;;;28.89;32.01
65175;BME280;51761;42.126;24.752;2022-10-24T14:34:00;99931.50;;;28.86;32.08
65175;BME280;51761;42.126;24.752;2022-10-24T14:36:30;99927.31;;;28.63;32.27
65175;BME280;51761;42.126;24.752;2022-10-24T14:38:57;99916.81;;;28.47;32.24
65175;BME280;51761;42.126;24.752;2022-10-24T14:41:38;99927.56;;;28.41;32.68
65175;BME280;51761;42.126;24.752;2022-10-24T14:44:06;99900.50;;;28.02;33.24
65175;BME280;51761;42.126;24.752;2022-10-24T14:46:35;99924.44;;;28.10;33.31
65175;BME280;51761;42.126;24.752;2022-10-24T14:51:54;99919.31;;;27.68;33.49
65175;BME280;51761;42.126;24.752;2022-10-24T14:54:23;99920.19;;;27.52;34.28
65175;BME280;51761;42.126;24.752;2022-10-24T14:56:50;99888.56;;;27.23;34.30
65175;BME280;51761;42.126;24.752;2022-10-24T14:59:28;99917.19;;;27.28;34.47
65175;BME280;51761;42.126;24.752;2022-10-24T15:04:48;99919.41;;;27.00;35.44
65175;BME280;51761;42.126;24.752;2022-10-24T15:09:58;99886.53;;;26.39;35.78
65175;BME280;51761;42.126;24.752;2022-10-24T15:12:46;99922.97;;;26.55;36.24
65175;BME280;51761;42.126;24.752;2022-10-24T15:18:28;99930.50;;;26.36;36.32
65175;BME280;51761;42.126;24.752;2022-10-24T15:20:57;99903.25;;;25.97;36.96
65175;BME280;51761;42.126;24.752;2022-10-24T15:23:26;99924.31;;;25.99;37.46
65175;BME280;51761;42.126;24.752;2022-10-24T15:31:29;99901.88;;;25.48;38.04